createdAt,value
2023-04-05T01:45:22.402Z,-2.83
2023-04-05T01:47:55.511Z,-2.86
2023-04-05T01:50:29.029Z,-2.88
2023-04-05T01:53:03.942Z,-2.88
2023-04-05T01:55:36.579Z,-2.86
2023-04-05T01:58:09.404Z,-2.90
2023-04-05T02:00:42.466Z,-2.94
2023-04-05T02:03:16.185Z,-2.97
2023-04-05T02:05:49.281Z,-2.98
2023-04-05T02:08:22.034Z,-3.00
2023-04-05T02:10:56.688Z,-3.05
2023-04-05T02:13:29.636Z,-3.08
2023-04-05T02:16:03.546Z,-3.16
2023-04-05T02:18:39.013Z,-3.16
2023-04-05T02:21:12.804Z,-3.19
2023-04-05T02:23:45.552Z,-3.20
2023-04-05T02:26:18.134Z,-3.24
2023-04-05T02:28:50.784Z,-3.28
2023-04-05T02:31:24.776Z,-3.29
2023-04-05T02:33:58.227Z,-3.32
2023-04-05T02:36:32.184Z,-3.40
2023-04-05T02:39:05.105Z,-3.41
2023-04-05T02:41:37.840Z,-3.39
2023-04-05T02:44:10.495Z,-3.44
2023-04-05T02:46:43.404Z,-3.46
2023-04-05T02:49:16.808Z,-3.45
2023-04-05T02:51:51.585Z,-3.48
2023-04-05T02:54:24.904Z,-3.52
2023-04-05T02:57:02.710Z,-3.54
2023-04-05T02:59:44.026Z,-3.56
2023-04-05T03:02:16.592Z,-3.55
2023-04-05T03:04:49.713Z,-3.57
2023-04-05T03:07:22.781Z,-3.59
2023-04-05T03:09:54.642Z,-3.59
2023-04-05T03:12:29.174Z,-3.63
2023-04-05T03:15:01.782Z,-3.64
2023-04-05T03:17:39.989Z,-3.66
2023-04-05T03:20:16.153Z,-3.68
2023-04-05T03:22:48.961Z,-3.67
2023-04-05T03:25:22.350Z,-3.69
2023-04-05T03:27:56.041Z,-3.72
2023-04-05T03:30:32.805Z,-3.72
2023-04-05T03:33:11.423Z,-3.72
2023-04-05T03:35:48.255Z,-3.74
2023-04-05T03:38:21.194Z,-3.75
2023-04-05T03:41:03.319Z,-3.78
2023-04-05T03:43:34.435Z,-3.78
2023-04-05T03:46:07.862Z,-3.80
2023-04-05T03:48:40.381Z,-3.77
2023-04-05T03:51:13.138Z,-3.75
2023-04-05T03:53:45.784Z,-3.75
2023-04-05T03:56:18.719Z,-3.78
2023-04-05T03:58:56.314Z,-3.79
2023-04-05T04:01:33.470Z,-3.76
2023-04-05T04:04:06.701Z,-3.77
2023-04-05T04:06:40.073Z,-3.76
2023-04-05T04:09:12.758Z,-3.80
2023-04-05T04:11:45.408Z,-3.80
2023-04-05T04:14:19.839Z,-3.80
2023-04-05T04:17:08.140Z,-3.79
2023-04-05T04:20:11.545Z,-3.85
2023-04-05T04:23:10.477Z,-3.85
2023-04-05T04:26:02.339Z,-3.82
2023-04-05T04:28:53.861Z,-3.80
2023-04-05T04:31:41.088Z,-3.81
2023-04-05T04:34:36.580Z,-3.83
2023-04-05T04:37:38.022Z,-3.81
2023-04-05T04:40:32.854Z,-3.78
2023-04-05T04:43:27.681Z,-3.74
2023-04-05T04:46:19.507Z,-3.74
2023-04-05T04:49:22.192Z,-3.69
2023-04-05T04:51:53.011Z,-3.66
2023-04-05T04:54:29.861Z,-3.66
2023-04-05T04:57:03.303Z,-3.58
2023-04-05T04:59:37.535Z,-3.51
2023-04-05T05:02:12.092Z,-3.41
2023-04-05T05:04:45.034Z,-3.31
2023-04-05T05:07:18.068Z,-3.17
2023-04-05T05:09:52.822Z,-3.02
2023-04-05T05:12:27.200Z,-2.81
2023-04-05T05:14:59.617Z,-2.61
2023-04-05T05:17:35.181Z,-2.47
2023-04-05T05:20:11.460Z,-2.37
2023-04-05T05:22:48.827Z,-2.27
2023-04-05T05:25:29.932Z,-2.18
2023-04-05T05:28:04.556Z,-2.08
2023-04-05T05:30:45.189Z,-1.99
2023-04-05T05:33:18.993Z,-1.89
2023-04-05T05:35:53.869Z,-1.82
2023-04-05T05:38:26.776Z,-1.76
2023-04-05T05:41:02.828Z,-1.68
2023-04-05T05:43:36.926Z,-1.62
2023-04-05T05:46:10.350Z,-1.52
2023-04-05T05:48:43.344Z,-1.43
2023-04-05T05:51:16.480Z,-1.37
2023-04-05T05:53:49.371Z,-1.34
2023-04-05T05:56:22.098Z,-1.30
2023-04-05T05:58:54.989Z,-1.16
2023-04-05T06:01:28.668Z,-1.15
2023-04-05T06:03:59.555Z,-0.93
2023-04-05T06:06:36.036Z,-0.55
2023-04-05T06:09:09.938Z,-0.20
2023-04-05T06:11:53.224Z,0.17
2023-04-05T06:14:30.090Z,0.50
2023-04-05T06:17:02.772Z,0.64
2023-04-05T06:19:37.387Z,0.71
2023-04-05T06:22:10.600Z,0.75
2023-04-05T06:24:43.376Z,0.92
2023-04-05T06:27:16.530Z,1.06
2023-04-05T06:29:49.726Z,1.05
2023-04-05T06:32:21.231Z,1.16
2023-04-05T06:34:54.064Z,1.14
2023-04-05T06:37:28.334Z,1.18
2023-04-05T06:40:02.380Z,1.30
2023-04-05T06:42:35.204Z,1.55
2023-04-05T06:45:10.080Z,1.70
2023-04-05T06:47:44.636Z,1.71
2023-04-05T06:50:17.391Z,1.72
2023-04-05T06:52:50.044Z,1.70
2023-04-05T06:55:22.970Z,1.79
2023-04-05T06:57:56.168Z,2.00
2023-04-05T07:00:30.320Z,2.22
2023-04-05T07:03:03.222Z,2.37
2023-04-05T07:05:36.238Z,2.70
2023-04-05T07:08:08.939Z,2.94
2023-04-05T07:10:43.591Z,3.03
2023-04-05T07:13:18.717Z,3.10
2023-04-05T07:15:51.734Z,3.16
2023-04-05T07:18:24.764Z,3.04
2023-04-05T07:21:04.250Z,2.86
2023-04-05T07:23:36.874Z,3.09
2023-04-05T07:26:10.215Z,3.29
2023-04-05T07:28:42.854Z,3.38
2023-04-05T07:31:18.317Z,3.54
2023-04-05T07:33:51.141Z,3.75
2023-04-05T07:36:24.097Z,3.86
2023-04-05T07:38:58.279Z,3.89
2023-04-05T07:41:35.740Z,3.90
2023-04-05T07:44:08.563Z,3.98
2023-04-05T07:46:47.562Z,4.13
2023-04-05T07:49:20.207Z,4.19
2023-04-05T07:51:55.610Z,4.43
2023-04-05T07:54:28.567Z,4.62
2023-04-05T07:57:01.576Z,4.84
2023-04-05T07:59:34.483Z,4.97
2023-04-05T08:02:14.650Z,4.98
2023-04-05T08:04:47.989Z,5.11
2023-04-05T08:07:21.498Z,5.31
2023-04-05T08:09:54.099Z,5.37
2023-04-05T08:12:27.597Z,5.51
2023-04-05T08:15:00.811Z,5.48
2023-04-05T08:17:32.345Z,5.26
2023-04-05T08:20:05.602Z,5.31
2023-04-05T08:22:38.310Z,5.51
2023-04-05T08:25:12.612Z,5.42
2023-04-05T08:27:45.360Z,5.84
2023-04-05T08:30:20.332Z,5.97
2023-04-05T08:32:53.059Z,6.11
2023-04-05T08:35:25.811Z,6.26
2023-04-05T08:37:58.666Z,6.37
2023-04-05T08:40:39.478Z,6.18
2023-04-05T08:43:15.664Z,5.78
2023-04-05T08:45:51.779Z,5.59
2023-04-05T08:48:24.572Z,5.60
2023-04-05T08:50:57.432Z,5.47
2023-04-05T08:53:30.245Z,5.61
2023-04-05T08:56:04.742Z,5.89
2023-04-05T08:58:41.587Z,5.86
2023-04-05T09:01:17.719Z,6.05
2023-04-05T09:03:51.767Z,5.76
2023-04-05T09:06:29.285Z,5.68
2023-04-05T09:09:02.486Z,5.53
2023-04-05T09:11:35.809Z,5.44
2023-04-05T09:14:09.241Z,5.32
2023-04-05T09:16:43.469Z,5.28
2023-04-05T09:19:16.273Z,5.23
2023-04-05T09:22:12.408Z,5.20
2023-04-05T09:24:47.419Z,5.14
2023-04-05T09:27:24.223Z,5.02
2023-04-05T09:30:01.718Z,4.87
2023-04-05T09:32:35.348Z,4.67
2023-04-05T09:35:19.139Z,4.62
2023-04-05T09:37:56.793Z,4.55
2023-04-05T09:40:45.438Z,4.26
2023-04-05T09:43:40.049Z,3.98
2023-04-05T09:46:30.554Z,4.28
2023-04-05T09:49:04.540Z,4.45
2023-04-05T09:51:36.360Z,4.48
2023-04-05T09:54:11.823Z,4.44
2023-04-05T09:56:57.362Z,4.50
2023-04-05T09:59:32.075Z,4.57
2023-04-05T10:02:06.700Z,4.56
2023-04-05T10:04:44.474Z,4.47
2023-04-05T10:07:19.040Z,5.00
2023-04-05T10:09:52.332Z,5.42
2023-04-05T10:12:29.980Z,5.62
2023-04-05T10:15:03.067Z,5.49
2023-04-05T10:17:49.944Z,5.45
2023-04-05T10:20:25.532Z,5.39
2023-04-05T10:23:09.479Z,5.46
2023-04-05T10:25:57.980Z,5.42
2023-04-05T10:28:39.079Z,5.38
2023-04-05T10:31:36.466Z,5.36
2023-04-05T10:34:14.801Z,5.32
2023-04-05T10:36:52.556Z,5.27
2023-04-05T10:39:28.540Z,5.21
2023-04-05T10:42:08.108Z,5.20
2023-04-05T10:44:41.475Z,5.14
2023-04-05T10:47:18.698Z,4.92
2023-04-05T10:49:55.582Z,5.07
2023-04-05T10:52:29.735Z,5.16
2023-04-05T10:55:05.010Z,5.04
2023-04-05T10:57:40.617Z,5.65
2023-04-05T11:00:18.050Z,5.96
2023-04-05T11:02:55.806Z,5.92
2023-04-05T11:05:35.848Z,5.94
2023-04-05T11:08:10.587Z,6.06
2023-04-05T11:10:44.017Z,6.08
2023-04-05T11:13:16.779Z,6.18
2023-04-05T11:16:09.740Z,6.17
2023-04-05T11:18:48.944Z,6.23
2023-04-05T11:21:31.847Z,6.37
2023-04-05T11:24:10.163Z,6.12
2023-04-05T11:27:01.965Z,6.20
2023-04-05T11:29:53.059Z,6.27
2023-04-05T11:32:26.315Z,6.32
2023-04-05T11:35:09.744Z,6.44
2023-04-05T11:38:12.622Z,6.46
2023-04-05T11:40:45.693Z,6.27
2023-04-05T11:43:18.861Z,6.43
2023-04-05T11:45:52.380Z,6.40
2023-04-05T11:48:25.925Z,6.51
2023-04-05T11:50:59.826Z,6.62
2023-04-05T11:53:32.633Z,6.61
2023-04-05T11:56:13.302Z,6.55
2023-04-05T11:58:46.041Z,6.62
2023-04-05T12:01:22.087Z,6.87
2023-04-05T12:03:59.162Z,7.09
2023-04-05T12:06:32.331Z,7.02
2023-04-05T12:09:08.721Z,7.03
2023-04-05T12:11:41.991Z,7.01
2023-04-05T12:14:14.618Z,6.84
2023-04-05T12:16:53.791Z,6.69
2023-04-05T12:19:33.590Z,6.50
2023-04-05T12:22:06.461Z,6.44
2023-04-05T12:24:39.976Z,6.34
2023-04-05T12:27:12.991Z,6.27
2023-04-05T12:30:05.951Z,6.28
2023-04-05T12:32:44.527Z,6.25
2023-04-05T12:35:20.394Z,6.00
2023-04-05T12:37:53.691Z,6.05
2023-04-05T12:40:26.861Z,6.17
2023-04-05T12:43:05.862Z,6.20
2023-04-05T12:45:42.373Z,6.27
2023-04-05T12:48:16.750Z,6.43
2023-04-05T12:50:52.518Z,6.37
2023-04-05T12:53:28.885Z,6.49
2023-04-05T12:56:05.981Z,6.57
2023-04-05T12:58:41.249Z,6.58
2023-04-05T13:01:13.992Z,6.32
2023-04-05T13:03:49.962Z,6.56
2023-04-05T13:06:22.666Z,6.57
2023-04-05T13:08:55.253Z,6.60
2023-04-05T13:11:28.644Z,6.58
2023-04-05T13:14:01.265Z,6.59
2023-04-05T13:16:34.406Z,6.49
2023-04-05T13:19:07.090Z,6.26
2023-04-05T13:21:40.133Z,6.28
2023-04-05T13:24:13.087Z,6.20
2023-04-05T13:26:46.029Z,6.28
2023-04-05T13:29:18.778Z,6.38
2023-04-05T13:31:51.568Z,6.48
2023-04-05T13:34:26.965Z,6.59
2023-04-05T13:36:59.578Z,6.57
2023-04-05T13:39:34.916Z,6.72
2023-04-05T13:42:07.971Z,6.40
2023-04-05T13:44:40.549Z,6.03
2023-04-05T13:47:15.238Z,5.84
2023-04-05T13:49:48.086Z,5.81
2023-04-05T13:52:21.406Z,5.85
2023-04-05T13:55:01.876Z,5.66
2023-04-05T13:57:39.032Z,5.72
2023-04-05T14:00:14.333Z,5.68
2023-04-05T14:02:47.728Z,5.78
2023-04-05T14:05:20.845Z,5.73
2023-04-05T14:07:53.506Z,5.62
2023-04-05T14:10:26.092Z,5.73
2023-04-05T14:12:58.791Z,5.85
2023-04-05T14:15:34.640Z,5.78
2023-04-05T14:18:07.893Z,5.78
2023-04-05T14:20:40.937Z,5.84
2023-04-05T14:23:14.049Z,6.06
2023-04-05T14:25:46.826Z,6.35
2023-04-05T14:28:21.304Z,6.61
2023-04-05T14:30:54.892Z,6.80
2023-04-05T14:33:26.932Z,6.88
2023-04-05T14:36:00.237Z,6.79
2023-04-05T14:38:33.358Z,6.62
2023-04-05T14:41:06.827Z,6.49
2023-04-05T14:43:40.310Z,6.40
2023-04-05T14:46:13.530Z,6.37
2023-04-05T14:48:46.833Z,6.21
2023-04-05T14:51:19.787Z,6.16
2023-04-05T14:53:53.220Z,6.14
2023-04-05T14:56:26.357Z,6.13
2023-04-05T14:58:59.322Z,6.23
2023-04-05T15:01:32.498Z,6.27
2023-04-05T15:04:05.915Z,6.31
2023-04-05T15:06:40.456Z,6.42
2023-04-05T15:09:13.364Z,6.48
2023-04-05T15:11:46.526Z,6.58
2023-04-05T15:14:31.196Z,6.62
2023-04-05T15:17:05.119Z,6.53
2023-04-05T15:19:38.368Z,6.55
2023-04-05T15:22:12.368Z,6.52
2023-04-05T15:24:45.562Z,6.46
2023-04-05T15:27:18.898Z,6.47
2023-04-05T15:29:53.472Z,6.43
2023-04-05T15:32:26.324Z,6.44
2023-04-05T15:34:59.702Z,6.35
2023-04-05T15:37:33.740Z,6.32
2023-04-05T15:40:09.190Z,6.40
2023-04-05T15:42:42.084Z,6.41
2023-04-05T15:45:17.739Z,6.39
2023-04-05T15:47:50.969Z,6.39
2023-04-05T15:50:23.740Z,6.33
2023-04-05T15:52:57.020Z,6.27
2023-04-05T15:55:29.927Z,6.21
2023-04-05T15:58:03.271Z,6.21
2023-04-05T16:00:36.591Z,6.20
2023-04-05T16:03:09.841Z,6.14
2023-04-05T16:05:42.814Z,6.09
2023-04-05T16:08:18.645Z,6.01
2023-04-05T16:10:51.603Z,5.92
2023-04-05T16:13:24.931Z,5.88
2023-04-05T16:15:58.310Z,5.77
2023-04-05T16:18:32.284Z,5.64
2023-04-05T16:21:05.039Z,5.65
2023-04-05T16:23:38.287Z,5.62
2023-04-05T16:26:12.816Z,5.55
2023-04-05T16:28:45.865Z,5.54
2023-04-05T16:31:18.753Z,5.48
2023-04-05T16:33:53.249Z,5.40
2023-04-05T16:36:26.344Z,5.39
2023-04-05T16:38:59.418Z,5.40
2023-04-05T16:41:32.723Z,5.39
2023-04-05T16:44:06.813Z,5.39
2023-04-05T16:46:40.409Z,5.35
2023-04-05T16:49:13.484Z,5.32
2023-04-05T16:51:46.195Z,5.30
2023-04-05T16:54:20.685Z,5.27
2023-04-05T16:56:54.201Z,5.25
2023-04-05T16:59:29.158Z,5.18
2023-04-05T17:02:02.520Z,5.12
2023-04-05T17:04:37.578Z,5.11
2023-04-05T17:07:11.240Z,5.06
2023-04-05T17:09:44.200Z,5.03
2023-04-05T17:12:16.925Z,5.03
2023-04-05T17:14:49.981Z,5.02
2023-04-05T17:17:22.933Z,5.01
2023-04-05T17:19:55.821Z,4.95
2023-04-05T17:22:28.640Z,4.91
2023-04-05T17:25:03.070Z,4.89
2023-04-05T17:27:44.430Z,4.86
2023-04-05T17:30:19.261Z,4.84
2023-04-05T17:32:52.504Z,4.78
2023-04-05T17:35:25.603Z,4.68
2023-04-05T17:38:04.396Z,4.69
2023-04-05T17:40:39.041Z,4.66
2023-04-05T17:43:13.344Z,4.68
2023-04-05T17:45:46.963Z,4.68
2023-04-05T17:48:19.807Z,4.66
2023-04-05T17:50:54.527Z,4.60
2023-04-05T17:56:22.774Z,4.99
2023-04-05T17:58:56.478Z,4.89
2023-04-05T18:01:32.017Z,4.81
2023-04-05T18:04:10.131Z,4.74
2023-04-05T18:06:47.792Z,4.76
2023-04-05T18:09:22.304Z,4.74
2023-04-05T18:11:58.452Z,4.66
2023-04-05T18:14:34.986Z,4.61
2023-04-05T18:17:11.765Z,4.57
2023-04-05T18:19:55.344Z,4.53
2023-04-05T18:22:36.055Z,4.50
2023-04-05T18:25:14.345Z,4.45
2023-04-05T18:27:49.037Z,4.44
2023-04-05T18:30:24.889Z,4.42
2023-04-05T18:32:59.265Z,4.34
2023-04-05T18:35:33.680Z,4.34
2023-04-05T18:38:08.465Z,4.30
2023-04-05T18:40:42.761Z,4.24
2023-04-05T18:43:16.636Z,4.25
2023-04-05T18:45:50.479Z,4.21
2023-04-05T18:48:25.131Z,4.21
2023-04-05T18:51:02.941Z,4.07
2023-04-05T18:53:36.742Z,4.05
2023-04-05T18:56:10.798Z,4.04
2023-04-05T18:58:43.745Z,4.01
2023-04-05T19:01:18.033Z,3.94
2023-04-05T19:03:52.275Z,3.86
2023-04-05T19:06:25.444Z,3.78
2023-04-05T19:08:59.666Z,3.76
2023-04-05T19:11:34.935Z,3.74
2023-04-05T19:14:07.843Z,3.68
2023-04-05T19:16:41.064Z,3.69
2023-04-05T19:19:22.072Z,3.63
2023-04-05T19:21:59.570Z,3.62
2023-04-05T19:24:33.813Z,3.57
2023-04-05T19:27:07.304Z,3.51
2023-04-05T19:29:40.972Z,3.45
2023-04-05T19:32:13.120Z,3.48
2023-04-05T19:34:48.641Z,3.43
2023-04-05T19:37:22.279Z,3.38
2023-04-05T19:39:57.809Z,3.37
2023-04-05T19:42:33.232Z,3.37
2023-04-05T19:45:13.145Z,3.33
2023-04-05T19:47:49.730Z,3.32
2023-04-05T19:50:50.140Z,3.29
2023-04-05T19:53:50.767Z,3.24
2023-04-05T19:56:26.739Z,3.16
2023-04-05T19:59:03.800Z,3.13
2023-04-05T20:01:42.066Z,3.06
2023-04-05T20:04:20.024Z,2.98
2023-04-05T20:06:56.050Z,2.91
2023-04-05T20:09:31.286Z,2.80
2023-04-05T20:12:06.131Z,2.78
2023-04-05T20:14:46.771Z,2.80
2023-04-05T20:17:19.954Z,2.83
2023-04-05T20:20:01.414Z,2.85
2023-04-05T20:22:36.150Z,2.84
2023-04-05T20:25:28.793Z,2.83
2023-04-05T20:28:02.157Z,2.76
2023-04-05T20:30:36.607Z,2.72
2023-04-05T20:33:10.326Z,2.65
2023-04-05T20:35:42.856Z,2.67
2023-04-05T20:38:21.427Z,2.61
2023-04-05T20:40:56.328Z,2.60
2023-04-05T20:43:39.539Z,2.58
2023-04-05T20:46:16.658Z,2.57
2023-04-05T20:48:50.126Z,2.55
2023-04-05T20:51:24.077Z,2.51
2023-04-05T20:53:59.604Z,2.47
2023-04-05T20:56:33.987Z,2.40
2023-04-05T20:59:07.800Z,2.32
2023-04-05T21:01:42.390Z,2.28
2023-04-05T21:04:17.726Z,2.20
2023-04-05T21:06:51.019Z,2.14
2023-04-05T21:09:25.716Z,2.08
2023-04-05T21:11:58.704Z,2.01
2023-04-05T21:14:31.624Z,1.96
2023-04-05T21:17:05.256Z,1.92
2023-04-05T21:19:39.093Z,1.90
2023-04-05T21:22:14.468Z,1.86
2023-04-05T21:24:48.896Z,1.84
2023-04-05T21:27:24.850Z,1.71
2023-04-05T21:29:57.866Z,1.69
2023-04-05T21:32:31.845Z,1.63
2023-04-05T21:35:10.049Z,1.60
2023-04-05T21:37:45.254Z,1.54
2023-04-05T21:40:16.524Z,1.28
2023-04-05T21:42:54.627Z,1.20
2023-04-05T21:48:33.580Z,1.29
2023-04-05T21:51:08.081Z,1.33
2023-04-05T21:53:47.339Z,1.36
2023-04-05T21:56:21.447Z,1.36
2023-04-05T21:59:00.100Z,1.35
2023-04-05T22:01:37.754Z,1.34
2023-04-05T22:04:10.353Z,1.33
2023-04-05T22:06:52.358Z,1.34
2023-04-05T22:09:28.394Z,1.32
2023-04-05T22:12:04.688Z,1.32
2023-04-05T22:14:58.404Z,1.31
2023-04-05T22:17:32.228Z,1.29
2023-04-05T22:20:09.425Z,1.23
2023-04-05T22:22:45.126Z,1.21
2023-04-05T22:25:20.255Z,1.15
2023-04-05T22:27:53.180Z,1.08
2023-04-05T22:30:28.267Z,1.07
2023-04-05T22:33:03.560Z,1.05
2023-04-05T22:35:37.215Z,1.05
2023-04-05T22:38:13.027Z,1.03
2023-04-05T22:40:54.809Z,1.00
2023-04-05T22:43:31.819Z,0.96
2023-04-05T22:46:07.438Z,0.94
2023-04-05T22:48:40.350Z,0.87
2023-04-05T22:51:13.341Z,0.82
2023-04-05T22:53:48.787Z,0.81
2023-04-05T22:56:26.578Z,0.80
2023-04-05T22:59:01.473Z,0.81
2023-04-05T23:01:37.909Z,0.80
2023-04-05T23:04:15.688Z,0.78
2023-04-05T23:06:50.125Z,0.70
2023-04-05T23:09:25.340Z,0.67
2023-04-05T23:11:58.083Z,0.59
2023-04-05T23:14:30.921Z,0.52
2023-04-05T23:17:05.884Z,0.50
2023-04-05T23:19:38.949Z,0.44
2023-04-05T23:22:11.899Z,0.42
2023-04-05T23:24:44.667Z,0.37
2023-04-05T23:27:17.319Z,0.31
2023-04-05T23:29:49.952Z,0.24
2023-04-05T23:32:23.385Z,0.15
2023-04-05T23:34:56.520Z,0.16
2023-04-05T23:37:29.282Z,0.09
2023-04-05T23:40:02.150Z,0.07
2023-04-05T23:42:37.645Z,0.04
2023-04-05T23:45:12.575Z,0.02
2023-04-05T23:47:45.289Z,-0.00
2023-04-05T23:50:17.957Z,0.01
2023-04-05T23:52:50.606Z,-0.06
2023-04-05T23:55:26.095Z,-0.11
2023-04-05T23:58:00.535Z,-0.14
